Time;durP1;ratioP1;P1;durP2;ratioP2;P2;SDS_P1;SDS_P2;PMS_P1;PMS_P2;Temp;Humidity;BMP_temperature;BMP_pressure;BME280_temperature;BME280_humidity;BME280_pressure;Samples;Min_cycle;Max_cycle;Signal;HPM_P1;HPM_P2
2022/12/27 00:01:59;;;;;;;1.27;0.90;;;;;;;;;;4966862;28;20059;-78
2022/12/27 00:04:25;;;;;;;2.53;0.70;;;;;;;;;;4951010;29;20028;-78
2022/12/27 00:06:50;;;;;;;1.77;1.10;;;;;;;;;;4951460;29;20475;-78
2022/12/27 00:09:16;;;;;;;1.53;0.80;;;;;;;;;;4951804;29;20023;-78
2022/12/27 00:11:41;;;;;;;1.97;1.10;;;;;;;;;;4967391;28;20049;-78
2022/12/27 00:14:07;;;;;;;1.97;1.07;;;;;;;;;;4967403;28;20439;-78
2022/12/27 00:16:33;;;;;;;2.00;0.90;;;;;;;;;;4967964;28;20078;-77
2022/12/27 00:18:59;;;;;;;1.00;0.77;;;;;;;;;;4951203;29;20086;-78
2022/12/27 00:21:25;;;;;;;1.67;0.90;;;;;;;;;;4953022;29;20439;-77
2022/12/27 00:23:53;;;;;;;1.10;0.80;;;;;;;;;;4951209;29;20062;-78
2022/12/27 00:26:21;;;;;;;1.63;0.80;;;;;;;;;;4951143;29;20023;-78
2022/12/27 00:28:47;;;;;;;2.07;0.90;;;;;;;;;;4966581;28;20118;-77
2022/12/27 00:31:14;;;;;;;1.57;0.73;;;;;;;;;;4966717;28;20372;-78
2022/12/27 00:33:42;;;;;;;1.50;0.80;;;;;;;;;;4950439;29;20041;-79
2022/12/27 00:36:14;;;;;;;3.70;0.80;;;;;;;;;;4951813;28;20031;-78
2022/12/27 00:38:40;;;;;;;1.40;0.97;;;;;;;;;;4953378;28;20476;-77
2022/12/27 00:41:06;;;;;;;4.57;0.77;;;;;;;;;;4950847;29;20035;-79
2022/12/27 00:43:32;;;;;;;0.60;0.60;;;;;;;;;;4950177;28;20047;-78
2022/12/27 00:45:58;;;;;;;1.00;0.60;;;;;;;;;;4934370;29;20035;-77
2022/12/27 00:48:23;;;;;;;1.00;0.60;;;;;;;;;;4951987;29;20110;-78
2022/12/27 00:50:49;;;;;;;1.37;0.63;;;;;;;;;;4950091;28;20049;-77
2022/12/27 00:53:14;;;;;;;1.13;0.43;;;;;;;;;;4950367;28;20027;-78
2022/12/27 00:55:44;;;;;;;0.67;0.40;;;;;;;;;;4934657;29;20109;-78
2022/12/27 00:58:10;;;;;;;0.70;0.57;;;;;;;;;;4936634;29;20035;-79
2022/12/27 01:00:36;;;;;;;0.73;0.40;;;;;;;;;;4953266;29;20138;-77
2022/12/27 01:03:03;;;;;;;0.63;0.43;;;;;;;;;;4933765;29;20027;-78
2022/12/27 01:05:28;;;;;;;1.00;0.50;;;;;;;;;;4951209;29;20067;-78
2022/12/27 01:07:54;;;;;;;1.47;0.50;;;;;;;;;;4949830;28;20066;-78
2022/12/27 01:10:19;;;;;;;0.80;0.50;;;;;;;;;;4951591;29;20027;-78
2022/12/27 01:12:45;;;;;;;0.67;0.53;;;;;;;;;;4950551;29;20038;-79
2022/12/27 01:15:10;;;;;;;1.53;0.70;;;;;;;;;;4950845;28;20515;-78
2022/12/27 01:17:36;;;;;;;2.60;0.50;;;;;;;;;;4954095;29;20086;-78
2022/12/27 01:20:02;;;;;;;4.53;0.80;;;;;;;;;;4959075;28;20042;-78
2022/12/27 01:22:28;;;;;;;1.27;0.53;;;;;;;;;;4937708;29;20535;-78
2022/12/27 01:24:55;;;;;;;1.60;0.60;;;;;;;;;;4934595;29;20118;-78
2022/12/27 01:27:20;;;;;;;1.47;0.80;;;;;;;;;;4935679;29;20061;-78
2022/12/27 01:29:46;;;;;;;0.87;0.37;;;;;;;;;;4935995;29;20067;-79
2022/12/27 01:32:11;;;;;;;0.97;0.50;;;;;;;;;;4935273;29;20027;-78
2022/12/27 01:34:37;;;;;;;0.37;0.37;;;;;;;;;;4951697;29;20079;-78
2022/12/27 01:37:03;;;;;;;2.73;0.60;;;;;;;;;;4951288;28;20532;-78
2022/12/27 01:39:29;;;;;;;2.43;0.40;;;;;;;;;;4950812;29;20066;-79
2022/12/27 01:44:50;;;;;;;0.83;0.60;;;;;;;;;;4951904;29;20694;-78
2022/12/27 01:47:53;;;;;;;0.27;0.27;;;;;;;;;;4951866;28;20480;-79
2022/12/27 01:50:35;;;;;;;0.40;0.30;;;;;;;;;;4954746;29;20028;-78
2022/12/27 01:53:13;;;;;;;1.20;0.40;;;;;;;;;;4953439;29;20028;-78
2022/12/27 01:56:11;;;;;;;3.23;1.20;;;;;;;;;;4954650;29;20098;-78
2022/12/27 01:59:02;;;;;;;2.67;0.83;;;;;;;;;;4953994;29;20042;-78
2022/12/27 02:01:43;;;;;;;2.13;0.80;;;;;;;;;;4960057;28;20070;-78
2022/12/27 02:04:19;;;;;;;1.27;0.93;;;;;;;;;;4954372;29;20387;-78
2022/12/27 02:06:47;;;;;;;1.37;0.90;;;;;;;;;;4954407;29;20360;-78
2022/12/27 02:09:23;;;;;;;3.10;1.23;;;;;;;;;;4969315;28;20558;-77
2022/12/27 02:11:55;;;;;;;1.07;0.80;;;;;;;;;;4952846;29;20383;-77
2022/12/27 02:14:31;;;;;;;2.67;1.25;;;;;;;;;;4954666;29;20021;-78
2022/12/27 02:16:59;;;;;;;2.37;0.90;;;;;;;;;;4954691;29;20031;-79
2022/12/27 02:19:57;;;;;;;2.00;1.00;;;;;;;;;;4955962;29;20027;-78
2022/12/27 02:25:34;;;;;;;1.73;1.20;;;;;;;;;;4954425;29;20042;-78
2022/12/27 02:28:31;;;;;;;2.87;1.53;;;;;;;;;;4954181;29;20472;-78
2022/12/27 02:31:14;;;;;;;4.30;1.60;;;;;;;;;;4953032;29;20397;-78
2022/12/27 02:33:45;;;;;;;2.00;1.37;;;;;;;;;;4953746;29;20388;-78
2022/12/27 02:36:18;;;;;;;6.00;1.50;;;;;;;;;;4952329;29;20110;-78
2022/12/27 02:38:49;;;;;;;4.80;2.27;;;;;;;;;;4953409;28;20070;-78
2022/12/27 02:53:04;;;;;;;7.47;2.80;;;;;;;;;;4953798;29;20486;-78
2022/12/27 02:59:12;;;;;;;3.83;2.13;;;;;;;;;;4952276;28;20041;-78
2022/12/27 03:04:38;;;;;;;6.10;2.70;;;;;;;;;;4953844;29;20588;-78
2022/12/27 03:07:12;;;;;;;6.33;2.67;;;;;;;;;;4952116;29;20031;-78
2022/12/27 03:15:56;;;;;;;10.53;3.83;;;;;;;;;;4954040;29;20038;-78
2022/12/27 03:18:29;;;;;;;7.00;3.37;;;;;;;;;;4936806;29;20031;-78
2022/12/27 03:26:31;;;;;;;8.37;3.30;;;;;;;;;;4955014;29;20038;-77
2022/12/27 03:34:39;;;;;;;6.90;3.20;;;;;;;;;;4952736;29;20138;-78
2022/12/27 03:40:28;;;;;;;2.83;2.55;;;;;;;;;;4952901;29;20033;-78
2022/12/27 03:43:14;;;;;;;7.13;2.87;;;;;;;;;;4951239;29;20117;-78
2022/12/27 03:49:02;;;;;;;4.73;2.77;;;;;;;;;;4952731;29;20042;-78
2022/12/27 03:51:33;;;;;;;5.82;3.03;;;;;;;;;;4912667;29;20058;-78
2022/12/27 03:54:07;;;;;;;5.60;3.00;;;;;;;;;;4951244;29;20045;-78
2022/12/27 03:56:32;;;;;;;8.30;2.97;;;;;;;;;;4951088;29;20030;-78
2022/12/27 03:58:59;;;;;;;5.63;2.00;;;;;;;;;;4935759;29;20035;-78
2022/12/27 04:01:25;;;;;;;3.60;1.90;;;;;;;;;;4952321;28;20031;-78
2022/12/27 04:03:50;;;;;;;2.63;2.13;;;;;;;;;;4935139;29;20491;-78
2022/12/27 04:06:16;;;;;;;3.93;2.40;;;;;;;;;;4952864;29;20031;-78
2022/12/27 04:36:02;;;;;;;2.30;1.90;;;;;;;;;;4953105;29;20333;-78
2022/12/27 04:38:27;;;;;;;4.57;1.87;;;;;;;;;;4963146;28;20134;-77
2022/12/27 04:55:22;;;;;;;2.07;1.27;;;;;;;;;;4957489;29;20037;-78
2022/12/27 04:57:48;;;;;;;3.93;1.50;;;;;;;;;;4967495;28;20038;-78
2022/12/27 05:03:03;;;;;;;2.73;1.40;;;;;;;;;;4952324;29;20074;-77
2022/12/27 05:05:28;;;;;;;4.60;1.80;;;;;;;;;;4951932;29;20042;-78
2022/12/27 05:16:08;;;;;;;4.00;2.07;;;;;;;;;;4950320;29;20078;-77
2022/12/27 05:18:33;;;;;;;4.43;1.63;;;;;;;;;;4969646;28;20022;-78
2022/12/27 05:21:04;;;;;;;5.40;2.20;;;;;;;;;;4970550;28;20027;-78
2022/12/27 05:26:26;;;;;;;3.60;1.63;;;;;;;;;;4975683;28;20073;-78
2022/12/27 05:28:53;;;;;;;5.80;2.10;;;;;;;;;;4975970;28;20027;-78
2022/12/27 05:31:20;;;;;;;4.97;2.63;;;;;;;;;;4973826;28;20034;-77
2022/12/27 05:33:46;;;;;;;2.77;2.47;;;;;;;;;;4974660;28;20073;-77
2022/12/27 05:36:12;;;;;;;2.27;2.07;;;;;;;;;;4957049;28;20030;-77
2022/12/27 05:38:38;;;;;;;5.10;2.53;;;;;;;;;;4969755;28;20479;-79
2022/12/27 05:41:04;;;;;;;4.00;2.50;;;;;;;;;;4956453;29;20364;-77
2022/12/27 05:43:30;;;;;;;4.80;3.07;;;;;;;;;;4953734;28;20062;-78
2022/12/27 05:46:22;;;;;;;5.07;2.47;;;;;;;;;;4968750;28;20031;-78
2022/12/27 05:48:47;;;;;;;4.53;2.50;;;;;;;;;;4939207;29;20716;-78
2022/12/27 05:51:19;;;;;;;9.80;3.67;;;;;;;;;;4969597;28;20031;-78
2022/12/27 05:53:47;;;;;;;6.07;2.97;;;;;;;;;;4956675;29;20039;-78
2022/12/27 05:56:17;;;;;;;4.07;2.87;;;;;;;;;;4971364;28;20042;-78
2022/12/27 05:58:43;;;;;;;3.47;2.40;;;;;;;;;;4969914;28;20488;-77
2022/12/27 06:01:12;;;;;;;6.63;3.20;;;;;;;;;;4954654;29;20137;-78
2022/12/27 06:03:38;;;;;;;5.50;2.60;;;;;;;;;;4953326;29;20054;-77
2022/12/27 06:06:04;;;;;;;7.17;4.07;;;;;;;;;;4954394;28;20035;-78
2022/12/27 06:08:31;;;;;;;8.37;3.07;;;;;;;;;;4954711;29;20035;-79
2022/12/27 06:11:08;;;;;;;4.70;2.63;;;;;;;;;;4954534;29;20097;-78
2022/12/27 06:13:34;;;;;;;6.23;3.27;;;;;;;;;;4955333;29;20026;-78
2022/12/27 06:16:01;;;;;;;8.27;2.63;;;;;;;;;;4969400;28;20384;-77
2022/12/27 06:18:29;;;;;;;6.23;2.90;;;;;;;;;;4954114;29;20115;-79
2022/12/27 06:21:02;;;;;;;4.47;2.83;;;;;;;;;;4952604;29;20077;-78
2022/12/27 06:23:28;;;;;;;3.13;2.53;;;;;;;;;;4952130;29;20039;-77
2022/12/27 06:25:54;;;;;;;4.20;2.20;;;;;;;;;;4968757;28;20522;-78
2022/12/27 06:28:19;;;;;;;3.03;2.10;;;;;;;;;;4954035;29;20035;-77
2022/12/27 06:30:45;;;;;;;4.90;2.30;;;;;;;;;;4953996;29;20031;-77
2022/12/27 06:33:10;;;;;;;9.03;2.80;;;;;;;;;;4953843;28;20372;-78
2022/12/27 06:35:36;;;;;;;2.20;1.80;;;;;;;;;;4953800;29;20074;-78
2022/12/27 06:38:01;;;;;;;4.47;1.73;;;;;;;;;;4953519;29;20054;-78
2022/12/27 06:40:27;;;;;;;2.60;1.70;;;;;;;;;;4936472;29;20066;-78
2022/12/27 06:42:52;;;;;;;5.53;2.40;;;;;;;;;;4936447;29;20086;-78
2022/12/27 06:45:18;;;;;;;5.77;2.20;;;;;;;;;;4951771;29;20078;-78
2022/12/27 06:47:43;;;;;;;2.77;1.50;;;;;;;;;;4936269;29;20023;-78
2022/12/27 06:50:09;;;;;;;3.73;1.80;;;;;;;;;;4951821;29;20106;-78
2022/12/27 06:52:34;;;;;;;4.53;2.10;;;;;;;;;;4952302;29;20038;-78
2022/12/27 06:55:00;;;;;;;3.20;2.03;;;;;;;;;;4953522;29;20027;-78
2022/12/27 06:57:25;;;;;;;2.57;1.80;;;;;;;;;;4936004;29;20062;-77
2022/12/27 06:59:51;;;;;;;4.20;1.73;;;;;;;;;;4935778;29;20035;-78
2022/12/27 07:02:16;;;;;;;2.13;1.60;;;;;;;;;;4953458;29;20034;-77
2022/12/27 07:04:42;;;;;;;4.70;1.87;;;;;;;;;;4953516;29;20077;-78
2022/12/27 07:07:07;;;;;;;3.77;1.97;;;;;;;;;;4936852;29;20499;-78
2022/12/27 07:09:33;;;;;;;3.23;1.53;;;;;;;;;;4954684;29;20106;-78
2022/12/27 07:11:58;;;;;;;6.27;2.20;;;;;;;;;;4954540;29;20027;-78
2022/12/27 07:14:24;;;;;;;7.17;2.27;;;;;;;;;;4954433;29;20031;-78
2022/12/27 07:16:49;;;;;;;7.50;2.10;;;;;;;;;;4954374;28;20026;-78
2022/12/27 07:19:15;;;;;;;2.37;1.70;;;;;;;;;;4954153;29;20340;-78
2022/12/27 07:21:40;;;;;;;2.63;1.50;;;;;;;;;;4955039;28;20023;-79
2022/12/27 07:24:06;;;;;;;4.17;2.07;;;;;;;;;;4952518;29;20023;-79
2022/12/27 07:26:31;;;;;;;2.30;1.80;;;;;;;;;;4936946;29;20447;-77
2022/12/27 07:28:59;;;;;;;8.40;3.23;;;;;;;;;;4953570;29;20039;-78
2022/12/27 07:31:28;;;;;;;5.97;2.10;;;;;;;;;;4951480;28;20031;-78
2022/12/27 07:33:54;;;;;;;5.27;2.10;;;;;;;;;;4953263;28;20039;-77
2022/12/27 07:36:23;;;;;;;9.37;7.63;;;;;;;;;;4935556;29;20495;-77
2022/12/27 07:38:48;;;;;;;4.77;2.27;;;;;;;;;;4950050;29;20019;-78
2022/12/27 07:41:16;;;;;;;4.70;2.10;;;;;;;;;;4943666;28;20240;-77
2022/12/27 07:43:43;;;;;;;6.13;2.10;;;;;;;;;;4950062;28;20094;-77
2022/12/27 07:46:20;;;;;;;6.37;2.60;;;;;;;;;;4956361;28;20472;-77
2022/12/27 07:48:46;;;;;;;3.37;1.63;;;;;;;;;;4951564;29;20023;-78
2022/12/27 07:51:14;;;;;;;6.67;2.00;;;;;;;;;;4930868;28;20102;-77
2022/12/27 07:53:40;;;;;;;5.77;1.97;;;;;;;;;;4919816;28;20037;-76
2022/12/27 07:56:11;;;;;;;3.43;1.57;;;;;;;;;;4948679;28;20023;-77
2022/12/27 07:58:39;;;;;;;5.70;3.72;;;;;;;;;;4934357;29;20469;-77
2022/12/27 08:01:05;;;;;;;8.63;1.90;;;;;;;;;;4950146;29;20039;-78
2022/12/27 08:03:31;;;;;;;4.03;1.63;;;;;;;;;;4950555;29;20055;-77
2022/12/27 08:05:57;;;;;;;6.60;1.50;;;;;;;;;;4950854;29;20159;-78
2022/12/27 08:08:26;;;;;;;3.27;1.80;;;;;;;;;;4948228;28;20035;-77
2022/12/27 08:10:51;;;;;;;4.70;1.67;;;;;;;;;;4933931;28;20039;-78
2022/12/27 08:13:17;;;;;;;6.30;1.40;;;;;;;;;;4930009;29;20050;-76
2022/12/27 08:15:43;;;;;;;9.03;1.83;;;;;;;;;;4945441;29;20457;-77
2022/12/27 08:18:09;;;;;;;6.53;2.00;;;;;;;;;;4948882;29;20129;-78
2022/12/27 08:20:35;;;;;;;4.17;1.77;;;;;;;;;;4949583;29;20042;-78
2022/12/27 08:23:00;;;;;;;3.30;1.60;;;;;;;;;;4933118;29;20059;-78
2022/12/27 08:25:27;;;;;;;1.50;1.20;;;;;;;;;;4935715;29;20421;-77
2022/12/27 08:28:00;;;;;;;3.50;1.10;;;;;;;;;;4948351;29;20034;-77
2022/12/27 08:30:26;;;;;;;3.97;1.43;;;;;;;;;;4950675;29;20476;-77
2022/12/27 08:32:52;;;;;;;4.50;1.10;;;;;;;;;;4950712;28;20102;-79
2022/12/27 08:35:17;;;;;;;17.63;1.50;;;;;;;;;;4948332;29;20031;-78
2022/12/27 08:37:43;;;;;;;1.77;1.27;;;;;;;;;;4949893;29;20460;-79
2022/12/27 08:40:10;;;;;;;2.17;1.40;;;;;;;;;;4929676;29;20031;-78
2022/12/27 08:42:35;;;;;;;2.97;1.43;;;;;;;;;;4931475;29;20087;-77
2022/12/27 08:45:01;;;;;;;4.03;1.03;;;;;;;;;;4931500;29;20052;-78
2022/12/27 08:47:26;;;;;;;2.33;1.23;;;;;;;;;;4931668;29;20441;-78
2022/12/27 08:49:52;;;;;;;5.77;1.40;;;;;;;;;;4933155;29;20035;-78
2022/12/27 08:52:17;;;;;;;3.50;1.20;;;;;;;;;;4950000;29;20054;-77
2022/12/27 08:54:43;;;;;;;3.47;1.10;;;;;;;;;;4948758;29;20023;-78
2022/12/27 08:57:08;;;;;;;5.30;1.07;;;;;;;;;;4936237;29;20065;-77
2022/12/27 08:59:34;;;;;;;4.13;1.30;;;;;;;;;;4952531;29;20507;-78
2022/12/27 09:01:59;;;;;;;4.73;1.60;;;;;;;;;;4953168;29;20559;-78
2022/12/27 09:04:25;;;;;;;3.23;1.57;;;;;;;;;;4952294;29;20047;-78
2022/12/27 09:06:50;;;;;;;4.77;1.30;;;;;;;;;;4952340;29;20054;-78
2022/12/27 09:09:16;;;;;;;2.53;1.40;;;;;;;;;;4952556;29;20035;-78
2022/12/27 09:11:41;;;;;;;9.47;3.60;;;;;;;;;;4937533;28;20118;-78
2022/12/27 09:14:08;;;;;;;12.23;6.20;;;;;;;;;;4952241;28;20049;-77
2022/12/27 09:16:35;;;;;;;4.97;0.93;;;;;;;;;;4951913;29;20069;-77
2022/12/27 09:19:01;;;;;;;1.47;1.20;;;;;;;;;;4949901;29;20042;-79
2022/12/27 09:21:30;;;;;;;4.60;1.17;;;;;;;;;;4918469;29;20035;-79
2022/12/27 09:23:56;;;;;;;4.87;1.00;;;;;;;;;;4935851;29;20039;-79
2022/12/27 09:26:25;;;;;;;7.80;1.60;;;;;;;;;;4951412;29;20447;-77
2022/12/27 09:28:52;;;;;;;2.30;1.13;;;;;;;;;;4935157;29;20094;-78
2022/12/27 09:31:20;;;;;;;2.23;1.37;;;;;;;;;;4954222;29;20069;-78
2022/12/27 09:33:46;;;;;;;4.10;1.23;;;;;;;;;;4963286;28;20125;-79
2022/12/27 09:36:17;;;;;;;5.23;1.23;;;;;;;;;;4961960;28;20114;-78
2022/12/27 09:38:43;;;;;;;1.20;1.00;;;;;;;;;;4954568;29;20027;-78
2022/12/27 09:41:18;;;;;;;4.03;1.47;;;;;;;;;;4953289;29;20034;-78
2022/12/27 09:43:59;;;;;;;8.27;1.53;;;;;;;;;;4936182;29;20200;-78
2022/12/27 09:46:40;;;;;;;3.97;1.43;;;;;;;;;;4953388;29;20137;-77
2022/12/27 09:49:13;;;;;;;3.47;1.30;;;;;;;;;;4952932;29;20035;-79
2022/12/27 09:51:47;;;;;;;3.30;1.23;;;;;;;;;;4952258;29;20559;-78
2022/12/27 09:54:25;;;;;;;4.43;1.30;;;;;;;;;;4952177;29;20035;-78
2022/12/27 09:56:51;;;;;;;6.30;1.43;;;;;;;;;;4950283;29;20087;-78
2022/12/27 09:59:35;;;;;;;4.23;1.47;;;;;;;;;;4934521;29;20099;-78
2022/12/27 10:02:01;;;;;;;5.40;1.80;;;;;;;;;;4948850;29;20039;-78
2022/12/27 10:04:31;;;;;;;6.67;1.50;;;;;;;;;;4947263;28;20502;-79
2022/12/27 10:07:32;;;;;;;2.50;1.50;;;;;;;;;;4935236;29;20031;-77
2022/12/27 10:10:09;;;;;;;2.90;1.33;;;;;;;;;;4857054;29;20040;-78
2022/12/27 10:12:50;;;;;;;5.70;1.23;;;;;;;;;;4923709;29;20042;-79
2022/12/27 10:15:47;;;;;;;3.80;1.30;;;;;;;;;;4951854;29;20622;-78
2022/12/27 10:18:44;;;;;;;3.13;1.43;;;;;;;;;;4952115;29;20042;-78
2022/12/27 10:21:19;;;;;;;2.63;1.20;;;;;;;;;;4941270;29;20023;-78
2022/12/27 10:23:53;;;;;;;5.13;1.40;;;;;;;;;;4951958;29;20480;-78
2022/12/27 10:26:20;;;;;;;3.43;1.43;;;;;;;;;;4953498;29;20082;-77
2022/12/27 10:29:21;;;;;;;7.97;1.10;;;;;;;;;;4953421;29;20067;-78
2022/12/27 10:31:47;;;;;;;2.87;1.47;;;;;;;;;;4937139;29;20031;-78
2022/12/27 10:34:15;;;;;;;4.53;1.07;;;;;;;;;;4953722;29;20709;-80
2022/12/27 10:36:44;;;;;;;3.03;1.60;;;;;;;;;;4953770;29;20158;-78
2022/12/27 10:39:31;;;;;;;2.80;1.10;;;;;;;;;;4954837;29;20473;-78
2022/12/27 10:42:36;;;;;;;4.77;1.57;;;;;;;;;;4938107;28;20492;-78
2022/12/27 10:45:23;;;;;;;6.47;1.83;;;;;;;;;;4942605;29;20162;-78
2022/12/27 10:47:49;;;;;;;2.43;1.00;;;;;;;;;;4948148;28;20042;-78
2022/12/27 10:50:16;;;;;;;4.87;1.47;;;;;;;;;;4949056;28;20393;-77
2022/12/27 10:52:42;;;;;;;2.67;1.23;;;;;;;;;;4949330;29;20051;-77
2022/12/27 10:55:33;;;;;;;6.20;1.80;;;;;;;;;;4933781;29;20026;-78
2022/12/27 10:58:17;;;;;;;2.23;1.13;;;;;;;;;;4936371;29;20120;-77
2022/12/27 11:00:53;;;;;;;7.10;1.33;;;;;;;;;;4948083;29;20119;-79
2022/12/27 11:03:20;;;;;;;4.00;1.20;;;;;;;;;;4932917;29;20031;-78
2022/12/27 11:05:59;;;;;;;1.57;1.17;;;;;;;;;;4932568;29;20028;-77
2022/12/27 11:08:25;;;;;;;3.23;1.47;;;;;;;;;;4933894;29;20042;-78
2022/12/27 11:11:16;;;;;;;5.83;1.50;;;;;;;;;;4941439;29;20035;-78
2022/12/27 11:13:42;;;;;;;4.57;1.50;;;;;;;;;;4923548;29;20039;-77
2022/12/27 11:16:20;;;;;;;3.87;1.10;;;;;;;;;;4947429;29;20028;-78
2022/12/27 11:18:50;;;;;;;3.63;1.00;;;;;;;;;;4930259;29;20218;-78
2022/12/27 11:21:16;;;;;;;2.90;1.17;;;;;;;;;;4926284;29;20032;-78
2022/12/27 11:23:48;;;;;;;3.77;1.20;;;;;;;;;;4938085;28;20087;-78
2022/12/27 11:26:23;;;;;;;5.03;1.20;;;;;;;;;;4947602;29;20546;-78
2022/12/27 11:28:57;;;;;;;3.27;1.20;;;;;;;;;;4944195;28;20126;-78
2022/12/27 11:31:46;;;;;;;9.33;1.10;;;;;;;;;;4932814;29;20034;-78
2022/12/27 11:34:12;;;;;;;4.57;1.43;;;;;;;;;;4947229;29;20499;-78
2022/12/27 11:36:41;;;;;;;3.97;1.50;;;;;;;;;;4932206;29;20027;-79
2022/12/27 11:39:27;;;;;;;3.80;1.00;;;;;;;;;;4932693;29;20027;-80
2022/12/27 11:42:06;;;;;;;2.90;0.97;;;;;;;;;;5067964;28;20884;-78
2022/12/27 11:44:36;;;;;;;5.77;1.40;;;;;;;;;;5066175;28;20047;-79
2022/12/27 11:47:30;;;;;;;4.20;1.27;;;;;;;;;;5065870;28;20403;-80
2022/12/27 11:50:12;;;;;;;2.70;1.03;;;;;;;;;;5066024;28;20622;-81
2022/12/27 11:52:58;;;;;;;2.77;0.80;;;;;;;;;;5055522;28;20037;-79
2022/12/27 11:55:41;;;;;;;1.60;1.30;;;;;;;;;;5073543;28;20032;-80
2022/12/27 11:58:40;;;;;;;6.60;1.50;;;;;;;;;;5071445;28;20040;-79
2022/12/27 12:01:45;;;;;;;3.10;1.07;;;;;;;;;;5067664;28;20012;-79
2022/12/27 12:04:36;;;;;;;3.83;1.00;;;;;;;;;;5055924;28;20095;-82
2022/12/27 12:07:23;;;;;;;5.57;1.60;;;;;;;;;;5063637;28;20043;-80
2022/12/27 12:10:07;;;;;;;2.77;0.90;;;;;;;;;;5055695;28;20036;-79
2022/12/27 12:12:54;;;;;;;2.00;1.10;;;;;;;;;;5053882;28;20021;-80
2022/12/27 12:15:40;;;;;;;5.17;1.00;;;;;;;;;;5064345;28;20189;-80
2022/12/27 12:18:41;;;;;;;1.80;0.83;;;;;;;;;;5060490;28;20075;-78
2022/12/27 12:21:35;;;;;;;0.90;0.80;;;;;;;;;;5061188;28;20098;-80
2022/12/27 12:24:40;;;;;;;0.83;0.70;;;;;;;;;;5052154;28;20028;-80
2022/12/27 12:27:30;;;;;;;4.73;1.37;;;;;;;;;;5065211;28;20028;-81
2022/12/27 12:30:21;;;;;;;3.63;1.10;;;;;;;;;;5067905;28;20024;-81
2022/12/27 12:32:46;;;;;;;3.97;0.97;;;;;;;;;;5065981;28;20087;-81
2022/12/27 12:35:30;;;;;;;5.13;0.90;;;;;;;;;;5054813;28;20489;-79
2022/12/27 12:38:11;;;;;;;1.93;1.10;;;;;;;;;;5057977;28;20108;-81
2022/12/27 12:40:55;;;;;;;3.47;1.20;;;;;;;;;;5066684;28;20510;-81
2022/12/27 12:43:39;;;;;;;6.93;1.93;;;;;;;;;;5065010;28;20025;-81
2022/12/27 12:46:26;;;;;;;3.60;1.17;;;;;;;;;;5065674;28;20036;-80
2022/12/27 12:49:14;;;;;;;3.87;1.57;;;;;;;;;;5064637;28;20127;-79
2022/12/27 12:51:40;;;;;;;4.30;1.00;;;;;;;;;;5062573;28;20392;-80
2022/12/27 12:54:29;;;;;;;4.33;1.63;;;;;;;;;;5053338;28;20021;-81
2022/12/27 12:57:10;;;;;;;4.33;1.73;;;;;;;;;;5051865;28;20029;-84
2022/12/27 13:00:08;;;;;;;2.40;1.30;;;;;;;;;;5039757;28;20075;-82
2022/12/27 13:03:09;;;;;;;3.47;1.37;;;;;;;;;;5059935;28;20020;-82
2022/12/27 13:05:50;;;;;;;4.90;1.55;;;;;;;;;;5037485;28;20033;-81
2022/12/27 13:08:48;;;;;;;7.10;1.73;;;;;;;;;;5041054;28;20152;-81
2022/12/27 13:11:30;;;;;;;4.50;1.27;;;;;;;;;;5037484;28;20109;-81
2022/12/27 13:14:15;;;;;;;3.90;1.50;;;;;;;;;;5035140;28;20512;-83
2022/12/27 13:16:56;;;;;;;5.87;1.30;;;;;;;;;;5040528;28;20116;-80
2022/12/27 13:19:45;;;;;;;5.47;1.93;;;;;;;;;;5033116;28;20136;-80
2022/12/27 13:22:44;;;;;;;4.83;1.60;;;;;;;;;;5048543;28;20457;-82
2022/12/27 13:25:36;;;;;;;7.43;1.67;;;;;;;;;;5043118;28;20049;-80
2022/12/27 13:28:57;;;;;;;3.47;2.03;;;;;;;;;;5052509;28;20044;-80
2022/12/27 13:31:31;;;;;;;2.43;1.30;;;;;;;;;;5030450;28;20029;-80
2022/12/27 13:34:38;;;;;;;4.87;1.43;;;;;;;;;;5029898;28;20040;-81
2022/12/27 13:37:28;;;;;;;2.87;1.47;;;;;;;;;;5035731;28;20025;-81
2022/12/27 13:40:41;;;;;;;1.67;1.20;;;;;;;;;;5050742;28;20045;-80
2022/12/27 13:43:25;;;;;;;;;;;;;;;;;;5040564;28;20049;-79
2022/12/27 13:46:06;;;;;;;6.57;1.90;;;;;;;;;;5036085;28;20004;-80
2022/12/27 13:48:50;;;;;;;9.17;1.90;;;;;;;;;;5051771;28;20120;-81
2022/12/27 13:51:46;;;;;;;7.03;2.30;;;;;;;;;;5051046;28;20021;-81
2022/12/27 13:58:07;;;;;;;2.20;1.10;;;;;;;;;;5072026;28;20033;-81
2022/12/27 14:01:14;;;;;;;9.10;1.43;;;;;;;;;;5054436;28;20052;-80
2022/12/27 14:04:01;;;;;;;5.37;1.43;;;;;;;;;;5051869;28;20037;-78
2022/12/27 14:06:36;;;;;;;2.83;1.33;;;;;;;;;;5052905;28;20105;-80
2022/12/27 14:09:29;;;;;;;3.47;1.20;;;;;;;;;;5052167;28;20029;-80
2022/12/27 14:12:34;;;;;;;3.87;1.30;;;;;;;;;;5033357;28;20453;-80
2022/12/27 14:15:41;;;;;;;4.77;2.00;;;;;;;;;;5043175;28;20091;-79
2022/12/27 14:22:44;;;;;;;;;;;;;;;;;;;;;
2022/12/27 14:25:34;;;;;;;9.65;2.40;;;;;;;;;;5077175;28;20523;-78
2022/12/27 14:28:37;;;;;;;3.10;1.40;;;;;;;;;;5052639;28;20055;-80
2022/12/27 14:31:43;;;;;;;3.83;1.57;;;;;;;;;;5032518;28;20030;-78
2022/12/27 14:34:56;;;;;;;6.60;2.07;;;;;;;;;;5032331;28;20030;-80
2022/12/27 14:37:39;;;;;;;2.93;1.40;;;;;;;;;;5047198;28;20033;-80
2022/12/27 14:40:42;;;;;;;3.73;1.53;;;;;;;;;;5050454;28;20049;-81
2022/12/27 14:43:36;;;;;;;2.70;1.30;;;;;;;;;;5051248;28;20532;-80
2022/12/27 14:46:46;;;;;;;7.00;1.93;;;;;;;;;;5051688;28;20614;-83
2022/12/27 14:49:53;;;;;;;5.37;1.77;;;;;;;;;;5032323;28;20037;-78
2022/12/27 14:52:43;;;;;;;3.83;1.43;;;;;;;;;;5032160;28;20021;-80
2022/12/27 14:55:27;;;;;;;5.97;1.73;;;;;;;;;;5030449;28;20099;-81
2022/12/27 14:58:44;;;;;;;5.83;1.53;;;;;;;;;;5030410;28;20076;-80
2022/12/27 15:01:38;;;;;;;5.03;1.47;;;;;;;;;;5012524;28;20021;-80
2022/12/27 15:05:06;;;;;;;6.40;1.90;;;;;;;;;;5012176;28;20025;-79
2022/12/27 15:08:07;;;;;;;3.50;1.27;;;;;;;;;;5018129;28;20123;-80
2022/12/27 15:11:05;;;;;;;6.60;1.77;;;;;;;;;;5045244;28;20025;-83
2022/12/27 15:13:42;;;;;;;9.30;2.00;;;;;;;;;;5031003;28;20393;-80
2022/12/27 15:16:32;;;;;;;2.90;1.63;;;;;;;;;;5046138;28;20040;-80
2022/12/27 15:19:10;;;;;;;6.37;1.80;;;;;;;;;;5046429;28;20018;-81
2022/12/27 15:21:57;;;;;;;10.23;2.33;;;;;;;;;;5043848;28;20025;-79
2022/12/27 15:24:27;;;;;;;6.23;2.40;;;;;;;;;;5049503;28;20108;-79
2022/12/27 15:30:11;;;;;;;5.80;2.27;;;;;;;;;;5042955;28;20032;-80
2022/12/27 15:32:52;;;;;;;7.03;2.20;;;;;;;;;;5036467;28;20023;-80
2022/12/27 15:35:26;;;;;;;7.30;2.00;;;;;;;;;;5029470;28;20026;-80
2022/12/27 15:38:00;;;;;;;4.40;1.93;;;;;;;;;;5030821;28;20025;-79
2022/12/27 15:40:32;;;;;;;14.53;3.37;;;;;;;;;;5028923;28;20044;-79
2022/12/27 15:43:13;;;;;;;6.20;2.65;;;;;;;;;;5033857;28;20099;-80
2022/12/27 15:45:52;;;;;;;7.97;2.22;;;;;;;;;;5030593;28;20030;-81
2022/12/27 15:48:48;;;;;;;5.83;2.30;;;;;;;;;;5029894;28;20477;-80
2022/12/27 15:51:25;;;;;;;3.97;2.23;;;;;;;;;;5030458;28;20477;-79
2022/12/27 15:54:15;;;;;;;10.60;2.80;;;;;;;;;;5043627;28;20056;-80
2022/12/27 15:57:19;;;;;;;9.20;2.83;;;;;;;;;;5048457;28;20029;-79
2022/12/27 16:00:03;;;;;;;6.27;2.80;;;;;;;;;;5047993;28;20044;-80
2022/12/27 16:02:35;;;;;;;7.57;2.50;;;;;;;;;;5049930;28;20025;-81
2022/12/27 16:05:11;;;;;;;8.63;2.97;;;;;;;;;;5039871;28;20059;-79
2022/12/27 16:07:45;;;;;;;7.90;3.30;;;;;;;;;;5038127;28;20139;-80
2022/12/27 16:10:44;;;;;;;7.87;2.87;;;;;;;;;;5038767;28;20025;-79
2022/12/27 16:13:10;;;;;;;5.40;2.43;;;;;;;;;;5050180;28;20591;-80
2022/12/27 16:15:49;;;;;;;12.10;3.43;;;;;;;;;;5038968;28;20108;-82
2022/12/27 16:18:18;;;;;;;5.13;2.53;;;;;;;;;;5042080;28;20445;-79
2022/12/27 16:21:11;;;;;;;11.00;3.00;;;;;;;;;;5048180;28;20468;-80
2022/12/27 16:23:54;;;;;;;7.50;3.50;;;;;;;;;;5029904;28;20104;-82
2022/12/27 16:26:27;;;;;;;18.60;3.97;;;;;;;;;;5032639;28;20443;-79
2022/12/27 16:29:04;;;;;;;8.63;3.60;;;;;;;;;;5048172;28;20514;-78
2022/12/27 16:31:32;;;;;;;10.60;2.97;;;;;;;;;;5052522;28;20071;-79
2022/12/27 16:34:10;;;;;;;11.20;3.13;;;;;;;;;;5053011;28;20378;-80
2022/12/27 16:36:43;;;;;;;6.07;2.87;;;;;;;;;;5052931;28;20476;-78
2022/12/27 16:39:23;;;;;;;6.80;3.17;;;;;;;;;;5052579;28;20040;-78
2022/12/27 16:41:54;;;;;;;8.60;3.27;;;;;;;;;;5053846;28;20547;-78
2022/12/27 16:44:23;;;;;;;7.60;2.70;;;;;;;;;;5054225;28;20028;-81
2022/12/27 16:47:07;;;;;;;6.33;3.03;;;;;;;;;;5053805;28;20266;-79
2022/12/27 16:49:41;;;;;;;5.43;2.50;;;;;;;;;;5053449;28;20028;-80
2022/12/27 16:52:15;;;;;;;7.13;2.60;;;;;;;;;;5052062;28;20486;-79
2022/12/27 16:55:06;;;;;;;5.93;2.97;;;;;;;;;;5051645;28;20033;-80
2022/12/27 16:57:41;;;;;;;;;;;;;;;;;;5054169;28;20098;-79
2022/12/27 17:00:10;;;;;;;8.90;2.90;;;;;;;;;;5053225;28;20019;-80
2022/12/27 17:02:36;;;;;;;6.33;3.00;;;;;;;;;;5051417;28;20029;-81
2022/12/27 17:05:04;;;;;;;6.43;2.77;;;;;;;;;;5051783;28;20051;-79
2022/12/27 17:07:54;;;;;;;23.20;3.40;;;;;;;;;;5051434;28;20121;-79
2022/12/27 17:10:40;;;;;;;8.03;3.63;;;;;;;;;;5052305;28;20060;-79
2022/12/27 17:13:17;;;;;;;7.57;3.57;;;;;;;;;;5052266;28;20028;-80
2022/12/27 17:15:57;;;;;;;7.07;2.70;;;;;;;;;;5055157;28;20037;-83
2022/12/27 17:18:33;;;;;;;8.53;3.53;;;;;;;;;;5053070;28;20335;-80
2022/12/27 17:21:12;;;;;;;6.67;3.40;;;;;;;;;;5053138;28;20425;-80
2022/12/27 17:23:45;;;;;;;8.17;3.50;;;;;;;;;;5052922;28;20047;-78
2022/12/27 17:26:56;;;;;;;9.90;4.67;;;;;;;;;;5052698;28;20495;-80
2022/12/27 17:29:53;;;;;;;8.53;3.07;;;;;;;;;;5050988;28;20033;-79